sensor_id;sensor_type;location;lat;lon;timestamp;P1;durP1;ratioP1;P2;durP2;ratioP2
80392;SDS011;69719;45.544;10.218;2023-12-20T00:02:11;15.82;;;7.30;;
80392;SDS011;69719;45.544;10.218;2023-12-20T00:04:37;22.00;;;10.82;;
80392;SDS011;69719;45.544;10.218;2023-12-20T00:07:02;15.20;;;6.15;;
80392;SDS011;69719;45.544;10.218;2023-12-20T00:09:28;14.35;;;6.55;;
80392;SDS011;69719;45.544;10.218;2023-12-20T00:11:53;16.20;;;6.50;;
80392;SDS011;69719;45.544;10.218;2023-12-20T00:14:19;14.75;;;6.97;;
80392;SDS011;69719;45.544;10.218;2023-12-20T00:16:45;13.50;;;6.88;;
80392;SDS011;69719;45.544;10.218;2023-12-20T00:19:10;13.23;;;6.32;;
80392;SDS011;69719;45.544;10.218;2023-12-20T00:21:36;12.57;;;6.18;;
80392;SDS011;69719;45.544;10.218;2023-12-20T00:24:01;12.27;;;5.50;;
80392;SDS011;69719;45.544;10.218;2023-12-20T00:26:27;13.10;;;5.32;;
80392;SDS011;69719;45.544;10.218;2023-12-20T00:28:53;10.38;;;6.40;;
80392;SDS011;69719;45.544;10.218;2023-12-20T00:31:18;15.25;;;6.30;;
80392;SDS011;69719;45.544;10.218;2023-12-20T00:33:44;12.98;;;5.90;;
80392;SDS011;69719;45.544;10.218;2023-12-20T00:36:11;14.25;;;5.72;;
80392;SDS011;69719;45.544;10.218;2023-12-20T00:38:36;12.52;;;6.32;;
80392;SDS011;69719;45.544;10.218;2023-12-20T00:41:02;15.68;;;6.55;;
80392;SDS011;69719;45.544;10.218;2023-12-20T00:43:27;13.63;;;5.75;;
80392;SDS011;69719;45.544;10.218;2023-12-20T00:45:53;14.45;;;5.97;;
80392;SDS011;69719;45.544;10.218;2023-12-20T00:48:18;11.00;;;5.55;;
80392;SDS011;69719;45.544;10.218;2023-12-20T00:50:44;12.90;;;5.70;;
80392;SDS011;69719;45.544;10.218;2023-12-20T00:53:09;10.50;;;6.00;;
80392;SDS011;69719;45.544;10.218;2023-12-20T00:55:35;9.40;;;4.95;;
80392;SDS011;69719;45.544;10.218;2023-12-20T00:58:00;12.95;;;5.50;;
80392;SDS011;69719;45.544;10.218;2023-12-20T01:00:26;13.65;;;5.35;;
80392;SDS011;69719;45.544;10.218;2023-12-20T01:02:52;10.82;;;5.25;;
80392;SDS011;69719;45.544;10.218;2023-12-20T01:05:18;12.35;;;5.57;;
80392;SDS011;69719;45.544;10.218;2023-12-20T01:07:44;12.40;;;5.35;;
80392;SDS011;69719;45.544;10.218;2023-12-20T01:10:10;11.02;;;4.95;;
80392;SDS011;69719;45.544;10.218;2023-12-20T01:12:36;10.73;;;5.25;;
80392;SDS011;69719;45.544;10.218;2023-12-20T01:15:01;9.63;;;4.82;;
80392;SDS011;69719;45.544;10.218;2023-12-20T01:17:27;12.65;;;4.45;;
80392;SDS011;69719;45.544;10.218;2023-12-20T01:19:52;14.48;;;5.05;;
80392;SDS011;69719;45.544;10.218;2023-12-20T01:22:18;9.32;;;5.10;;
80392;SDS011;69719;45.544;10.218;2023-12-20T01:24:44;10.70;;;5.20;;
80392;SDS011;69719;45.544;10.218;2023-12-20T01:27:09;11.05;;;5.35;;
80392;SDS011;69719;45.544;10.218;2023-12-20T01:29:35;9.45;;;4.57;;
80392;SDS011;69719;45.544;10.218;2023-12-20T01:32:00;10.25;;;5.05;;
80392;SDS011;69719;45.544;10.218;2023-12-20T01:34:26;11.90;;;4.95;;
80392;SDS011;69719;45.544;10.218;2023-12-20T01:36:51;10.38;;;4.65;;
80392;SDS011;69719;45.544;10.218;2023-12-20T01:39:17;8.90;;;4.95;;
80392;SDS011;69719;45.544;10.218;2023-12-20T01:41:43;8.55;;;4.85;;
80392;SDS011;69719;45.544;10.218;2023-12-20T01:44:08;10.55;;;4.82;;
80392;SDS011;69719;45.544;10.218;2023-12-20T01:46:34;8.05;;;4.82;;
80392;SDS011;69719;45.544;10.218;2023-12-20T01:49:00;9.63;;;5.18;;
80392;SDS011;69719;45.544;10.218;2023-12-20T01:51:26;9.60;;;4.82;;
80392;SDS011;69719;45.544;10.218;2023-12-20T01:53:54;7.38;;;4.28;;
80392;SDS011;69719;45.544;10.218;2023-12-20T01:56:24;7.55;;;4.10;;
80392;SDS011;69719;45.544;10.218;2023-12-20T01:58:50;7.55;;;4.20;;
80392;SDS011;69719;45.544;10.218;2023-12-20T02:01:16;6.53;;;3.88;;
80392;SDS011;69719;45.544;10.218;2023-12-20T02:03:42;8.48;;;4.00;;
80392;SDS011;69719;45.544;10.218;2023-12-20T02:06:08;9.07;;;4.25;;
80392;SDS011;69719;45.544;10.218;2023-12-20T02:08:34;6.38;;;3.78;;
80392;SDS011;69719;45.544;10.218;2023-12-20T02:11:01;8.07;;;3.80;;
80392;SDS011;69719;45.544;10.218;2023-12-20T02:13:26;8.80;;;4.15;;
80392;SDS011;69719;45.544;10.218;2023-12-20T02:15:52;6.43;;;3.60;;
80392;SDS011;69719;45.544;10.218;2023-12-20T02:18:19;10.00;;;4.25;;
80392;SDS011;69719;45.544;10.218;2023-12-20T02:20:44;8.68;;;3.85;;
80392;SDS011;69719;45.544;10.218;2023-12-20T02:23:10;8.25;;;4.43;;
80392;SDS011;69719;45.544;10.218;2023-12-20T02:25:35;8.90;;;4.63;;
80392;SDS011;69719;45.544;10.218;2023-12-20T02:28:02;6.13;;;3.58;;
80392;SDS011;69719;45.544;10.218;2023-12-20T02:30:28;6.50;;;3.58;;
80392;SDS011;69719;45.544;10.218;2023-12-20T02:32:54;9.60;;;3.83;;
80392;SDS011;69719;45.544;10.218;2023-12-20T02:35:20;9.43;;;3.72;;
80392;SDS011;69719;45.544;10.218;2023-12-20T02:37:46;7.63;;;3.42;;
80392;SDS011;69719;45.544;10.218;2023-12-20T02:40:11;5.05;;;3.20;;
80392;SDS011;69719;45.544;10.218;2023-12-20T02:42:37;8.00;;;3.15;;
80392;SDS011;69719;45.544;10.218;2023-12-20T02:45:02;6.20;;;3.20;;
80392;SDS011;69719;45.544;10.218;2023-12-20T02:47:28;7.20;;;3.53;;
80392;SDS011;69719;45.544;10.218;2023-12-20T02:49:55;6.72;;;3.20;;
80392;SDS011;69719;45.544;10.218;2023-12-20T02:52:21;5.07;;;2.70;;
80392;SDS011;69719;45.544;10.218;2023-12-20T02:54:47;6.50;;;3.00;;
80392;SDS011;69719;45.544;10.218;2023-12-20T02:57:13;10.30;;;3.35;;
80392;SDS011;69719;45.544;10.218;2023-12-20T02:59:38;6.03;;;3.55;;
80392;SDS011;69719;45.544;10.218;2023-12-20T03:02:04;4.90;;;3.15;;
80392;SDS011;69719;45.544;10.218;2023-12-20T03:04:29;7.65;;;3.33;;
80392;SDS011;69719;45.544;10.218;2023-12-20T03:06:56;5.43;;;3.42;;
80392;SDS011;69719;45.544;10.218;2023-12-20T03:09:21;5.18;;;3.10;;
80392;SDS011;69719;45.544;10.218;2023-12-20T03:11:47;8.02;;;2.80;;
80392;SDS011;69719;45.544;10.218;2023-12-20T03:14:12;4.63;;;2.90;;
80392;SDS011;69719;45.544;10.218;2023-12-20T03:16:38;4.47;;;3.15;;
80392;SDS011;69719;45.544;10.218;2023-12-20T03:19:03;5.00;;;2.90;;
80392;SDS011;69719;45.544;10.218;2023-12-20T03:21:28;5.68;;;3.08;;
80392;SDS011;69719;45.544;10.218;2023-12-20T03:23:54;7.05;;;3.00;;
80392;SDS011;69719;45.544;10.218;2023-12-20T03:26:19;6.93;;;2.97;;
80392;SDS011;69719;45.544;10.218;2023-12-20T03:28:45;8.82;;;3.42;;
80392;SDS011;69719;45.544;10.218;2023-12-20T03:31:10;5.40;;;3.17;;
80392;SDS011;69719;45.544;10.218;2023-12-20T03:33:36;6.47;;;3.08;;
80392;SDS011;69719;45.544;10.218;2023-12-20T03:36:01;7.18;;;3.10;;
80392;SDS011;69719;45.544;10.218;2023-12-20T03:38:27;6.95;;;3.30;;
80392;SDS011;69719;45.544;10.218;2023-12-20T03:40:52;6.38;;;3.63;;
80392;SDS011;69719;45.544;10.218;2023-12-20T03:43:18;6.82;;;3.25;;
80392;SDS011;69719;45.544;10.218;2023-12-20T03:45:43;6.18;;;3.13;;
80392;SDS011;69719;45.544;10.218;2023-12-20T03:48:09;4.75;;;3.15;;
80392;SDS011;69719;45.544;10.218;2023-12-20T03:50:34;5.10;;;3.40;;
80392;SDS011;69719;45.544;10.218;2023-12-20T03:53:00;4.38;;;2.72;;
80392;SDS011;69719;45.544;10.218;2023-12-20T03:55:26;5.03;;;2.72;;
80392;SDS011;69719;45.544;10.218;2023-12-20T03:57:51;5.20;;;3.08;;
80392;SDS011;69719;45.544;10.218;2023-12-20T04:00:17;5.95;;;2.88;;
80392;SDS011;69719;45.544;10.218;2023-12-20T04:02:42;7.63;;;2.83;;
80392;SDS011;69719;45.544;10.218;2023-12-20T04:05:08;7.47;;;3.72;;
80392;SDS011;69719;45.544;10.218;2023-12-20T04:07:35;8.15;;;3.20;;
80392;SDS011;69719;45.544;10.218;2023-12-20T04:10:01;4.85;;;3.20;;
80392;SDS011;69719;45.544;10.218;2023-12-20T04:12:27;7.38;;;3.25;;
80392;SDS011;69719;45.544;10.218;2023-12-20T04:14:53;4.63;;;3.08;;
80392;SDS011;69719;45.544;10.218;2023-12-20T04:17:19;6.78;;;3.13;;
80392;SDS011;69719;45.544;10.218;2023-12-20T04:19:45;6.25;;;3.42;;
80392;SDS011;69719;45.544;10.218;2023-12-20T04:22:10;11.07;;;4.00;;
80392;SDS011;69719;45.544;10.218;2023-12-20T04:24:36;9.73;;;3.75;;
80392;SDS011;69719;45.544;10.218;2023-12-20T04:27:01;6.90;;;3.58;;
80392;SDS011;69719;45.544;10.218;2023-12-20T04:29:27;6.90;;;4.25;;
80392;SDS011;69719;45.544;10.218;2023-12-20T04:31:53;8.07;;;4.20;;
80392;SDS011;69719;45.544;10.218;2023-12-20T04:34:18;10.27;;;4.13;;
80392;SDS011;69719;45.544;10.218;2023-12-20T04:36:44;9.05;;;3.75;;
80392;SDS011;69719;45.544;10.218;2023-12-20T04:39:11;9.25;;;3.70;;
80392;SDS011;69719;45.544;10.218;2023-12-20T04:41:38;8.95;;;3.50;;
80392;SDS011;69719;45.544;10.218;2023-12-20T04:44:03;17.95;;;4.45;;
80392;SDS011;69719;45.544;10.218;2023-12-20T04:46:29;10.20;;;4.50;;
80392;SDS011;69719;45.544;10.218;2023-12-20T04:48:54;10.77;;;4.28;;
80392;SDS011;69719;45.544;10.218;2023-12-20T04:51:20;7.18;;;3.72;;
80392;SDS011;69719;45.544;10.218;2023-12-20T04:53:46;9.40;;;4.07;;
80392;SDS011;69719;45.544;10.218;2023-12-20T04:56:11;10.73;;;3.75;;
80392;SDS011;69719;45.544;10.218;2023-12-20T04:58:37;6.80;;;3.92;;
80392;SDS011;69719;45.544;10.218;2023-12-20T05:01:03;6.43;;;3.70;;
80392;SDS011;69719;45.544;10.218;2023-12-20T05:03:30;5.95;;;3.33;;
80392;SDS011;69719;45.544;10.218;2023-12-20T05:05:56;7.20;;;3.85;;
80392;SDS011;69719;45.544;10.218;2023-12-20T05:08:21;11.20;;;3.55;;
80392;SDS011;69719;45.544;10.218;2023-12-20T05:10:47;7.97;;;3.78;;
80392;SDS011;69719;45.544;10.218;2023-12-20T05:13:13;10.45;;;3.92;;
80392;SDS011;69719;45.544;10.218;2023-12-20T05:15:38;5.60;;;3.35;;
80392;SDS011;69719;45.544;10.218;2023-12-20T05:18:04;9.93;;;3.28;;
80392;SDS011;69719;45.544;10.218;2023-12-20T05:20:29;9.05;;;3.60;;
80392;SDS011;69719;45.544;10.218;2023-12-20T05:22:55;9.98;;;3.50;;
80392;SDS011;69719;45.544;10.218;2023-12-20T05:25:20;11.05;;;4.30;;
80392;SDS011;69719;45.544;10.218;2023-12-20T05:27:46;8.20;;;3.92;;
80392;SDS011;69719;45.544;10.218;2023-12-20T05:30:11;6.85;;;3.67;;
80392;SDS011;69719;45.544;10.218;2023-12-20T05:32:37;8.88;;;3.85;;
80392;SDS011;69719;45.544;10.218;2023-12-20T05:35:02;8.77;;;3.75;;
80392;SDS011;69719;45.544;10.218;2023-12-20T05:37:28;10.10;;;4.47;;
80392;SDS011;69719;45.544;10.218;2023-12-20T05:39:54;9.48;;;4.47;;
80392;SDS011;69719;45.544;10.218;2023-12-20T05:42:19;5.63;;;3.40;;
80392;SDS011;69719;45.544;10.218;2023-12-20T05:44:45;10.25;;;4.05;;
80392;SDS011;69719;45.544;10.218;2023-12-20T05:47:10;7.55;;;3.88;;
80392;SDS011;69719;45.544;10.218;2023-12-20T05:49:36;6.65;;;3.53;;
80392;SDS011;69719;45.544;10.218;2023-12-20T05:52:01;9.30;;;3.40;;
80392;SDS011;69719;45.544;10.218;2023-12-20T05:54:27;7.78;;;3.55;;
80392;SDS011;69719;45.544;10.218;2023-12-20T05:56:52;7.88;;;3.75;;
80392;SDS011;69719;45.544;10.218;2023-12-20T05:59:17;9.82;;;3.75;;
80392;SDS011;69719;45.544;10.218;2023-12-20T06:01:43;6.88;;;3.72;;
80392;SDS011;69719;45.544;10.218;2023-12-20T06:04:08;6.60;;;3.58;;
80392;SDS011;69719;45.544;10.218;2023-12-20T06:06:34;11.02;;;4.32;;
80392;SDS011;69719;45.544;10.218;2023-12-20T06:08:59;9.18;;;4.30;;
80392;SDS011;69719;45.544;10.218;2023-12-20T06:11:25;9.05;;;3.63;;
80392;SDS011;69719;45.544;10.218;2023-12-20T06:13:51;7.25;;;3.55;;
80392;SDS011;69719;45.544;10.218;2023-12-20T06:16:18;10.73;;;3.78;;
80392;SDS011;69719;45.544;10.218;2023-12-20T06:18:44;9.52;;;3.92;;
80392;SDS011;69719;45.544;10.218;2023-12-20T06:21:09;8.07;;;3.63;;
80392;SDS011;69719;45.544;10.218;2023-12-20T06:23:38;7.43;;;3.58;;
80392;SDS011;69719;45.544;10.218;2023-12-20T06:26:03;8.85;;;3.75;;
80392;SDS011;69719;45.544;10.218;2023-12-20T06:28:29;8.45;;;4.50;;
80392;SDS011;69719;45.544;10.218;2023-12-20T06:30:54;17.20;;;4.25;;
80392;SDS011;69719;45.544;10.218;2023-12-20T06:33:21;8.30;;;4.03;;
80392;SDS011;69719;45.544;10.218;2023-12-20T06:35:47;9.85;;;5.43;;
80392;SDS011;69719;45.544;10.218;2023-12-20T06:38:13;12.52;;;4.22;;
80392;SDS011;69719;45.544;10.218;2023-12-20T06:40:39;17.75;;;4.70;;
80392;SDS011;69719;45.544;10.218;2023-12-20T06:43:04;12.93;;;3.72;;
80392;SDS011;69719;45.544;10.218;2023-12-20T06:45:31;8.35;;;3.83;;
80392;SDS011;69719;45.544;10.218;2023-12-20T06:47:57;8.70;;;3.50;;
80392;SDS011;69719;45.544;10.218;2023-12-20T06:50:23;11.95;;;4.35;;
80392;SDS011;69719;45.544;10.218;2023-12-20T06:52:49;12.98;;;3.90;;
80392;SDS011;69719;45.544;10.218;2023-12-20T06:55:14;9.95;;;4.13;;
80392;SDS011;69719;45.544;10.218;2023-12-20T06:57:40;10.05;;;4.13;;
80392;SDS011;69719;45.544;10.218;2023-12-20T07:00:06;12.77;;;4.30;;
80392;SDS011;69719;45.544;10.218;2023-12-20T07:02:33;10.73;;;3.95;;
80392;SDS011;69719;45.544;10.218;2023-12-20T07:04:59;9.77;;;4.20;;
80392;SDS011;69719;45.544;10.218;2023-12-20T07:07:25;12.77;;;4.25;;
80392;SDS011;69719;45.544;10.218;2023-12-20T07:09:51;7.50;;;4.00;;
80392;SDS011;69719;45.544;10.218;2023-12-20T07:12:16;12.25;;;4.05;;
80392;SDS011;69719;45.544;10.218;2023-12-20T07:14:44;10.98;;;4.40;;
80392;SDS011;69719;45.544;10.218;2023-12-20T07:17:10;10.20;;;4.13;;
80392;SDS011;69719;45.544;10.218;2023-12-20T07:19:38;9.60;;;4.07;;
80392;SDS011;69719;45.544;10.218;2023-12-20T07:22:05;11.88;;;3.88;;
80392;SDS011;69719;45.544;10.218;2023-12-20T07:24:31;12.20;;;4.75;;
80392;SDS011;69719;45.544;10.218;2023-12-20T07:26:57;8.10;;;4.00;;
80392;SDS011;69719;45.544;10.218;2023-12-20T07:29:22;16.85;;;4.78;;
80392;SDS011;69719;45.544;10.218;2023-12-20T07:31:48;13.27;;;4.45;;
80392;SDS011;69719;45.544;10.218;2023-12-20T07:34:13;11.93;;;4.68;;
80392;SDS011;69719;45.544;10.218;2023-12-20T07:36:39;12.45;;;4.60;;
80392;SDS011;69719;45.544;10.218;2023-12-20T07:39:04;9.73;;;4.95;;
80392;SDS011;69719;45.544;10.218;2023-12-20T07:41:30;11.27;;;4.60;;
80392;SDS011;69719;45.544;10.218;2023-12-20T07:43:55;13.95;;;4.82;;
80392;SDS011;69719;45.544;10.218;2023-12-20T07:46:21;10.25;;;4.60;;
80392;SDS011;69719;45.544;10.218;2023-12-20T07:48:50;9.70;;;4.72;;
80392;SDS011;69719;45.544;10.218;2023-12-20T07:51:15;10.68;;;4.50;;
80392;SDS011;69719;45.544;10.218;2023-12-20T07:53:41;14.13;;;5.53;;
80392;SDS011;69719;45.544;10.218;2023-12-20T07:56:14;16.50;;;5.32;;
80392;SDS011;69719;45.544;10.218;2023-12-20T07:58:43;11.82;;;5.25;;
80392;SDS011;69719;45.544;10.218;2023-12-20T08:01:09;17.10;;;5.28;;
80392;SDS011;69719;45.544;10.218;2023-12-20T08:03:35;12.77;;;5.57;;
80392;SDS011;69719;45.544;10.218;2023-12-20T08:06:04;15.98;;;5.95;;
80392;SDS011;69719;45.544;10.218;2023-12-20T08:08:29;14.70;;;5.93;;
80392;SDS011;69719;45.544;10.218;2023-12-20T08:10:55;15.88;;;5.63;;
80392;SDS011;69719;45.544;10.218;2023-12-20T08:13:22;11.68;;;5.43;;
80392;SDS011;69719;45.544;10.218;2023-12-20T08:15:51;14.23;;;6.30;;
80392;SDS011;69719;45.544;10.218;2023-12-20T08:18:17;14.07;;;5.40;;
80392;SDS011;69719;45.544;10.218;2023-12-20T08:20:42;13.73;;;6.07;;
80392;SDS011;69719;45.544;10.218;2023-12-20T08:23:07;18.27;;;6.00;;
80392;SDS011;69719;45.544;10.218;2023-12-20T08:25:33;16.35;;;6.00;;
80392;SDS011;69719;45.544;10.218;2023-12-20T08:27:58;19.02;;;6.88;;
80392;SDS011;69719;45.544;10.218;2023-12-20T08:30:24;14.25;;;7.03;;
80392;SDS011;69719;45.544;10.218;2023-12-20T08:32:50;17.55;;;7.47;;
80392;SDS011;69719;45.544;10.218;2023-12-20T08:35:15;17.35;;;6.18;;
80392;SDS011;69719;45.544;10.218;2023-12-20T08:37:41;16.92;;;7.13;;
80392;SDS011;69719;45.544;10.218;2023-12-20T08:40:06;13.57;;;7.35;;
80392;SDS011;69719;45.544;10.218;2023-12-20T08:42:32;12.63;;;6.28;;
80392;SDS011;69719;45.544;10.218;2023-12-20T08:44:59;18.25;;;6.85;;
80392;SDS011;69719;45.544;10.218;2023-12-20T08:47:29;15.02;;;5.63;;
80392;SDS011;69719;45.544;10.218;2023-12-20T08:49:54;14.65;;;5.85;;
80392;SDS011;69719;45.544;10.218;2023-12-20T08:52:22;18.67;;;6.43;;
80392;SDS011;69719;45.544;10.218;2023-12-20T08:54:48;16.67;;;7.10;;
80392;SDS011;69719;45.544;10.218;2023-12-20T08:57:17;13.65;;;6.47;;
80392;SDS011;69719;45.544;10.218;2023-12-20T08:59:44;14.80;;;6.70;;
80392;SDS011;69719;45.544;10.218;2023-12-20T09:02:09;18.35;;;6.63;;
80392;SDS011;69719;45.544;10.218;2023-12-20T09:04:35;17.45;;;7.25;;
80392;SDS011;69719;45.544;10.218;2023-12-20T09:07:00;18.40;;;8.15;;
80392;SDS011;69719;45.544;10.218;2023-12-20T09:09:26;18.40;;;7.85;;
80392;SDS011;69719;45.544;10.218;2023-12-20T09:11:52;22.45;;;7.63;;
80392;SDS011;69719;45.544;10.218;2023-12-20T09:14:17;17.90;;;7.68;;
80392;SDS011;69719;45.544;10.218;2023-12-20T09:16:42;22.00;;;7.28;;
80392;SDS011;69719;45.544;10.218;2023-12-20T09:19:08;18.27;;;6.95;;
80392;SDS011;69719;45.544;10.218;2023-12-20T09:21:34;19.73;;;8.50;;
80392;SDS011;69719;45.544;10.218;2023-12-20T09:23:59;29.90;;;10.35;;
80392;SDS011;69719;45.544;10.218;2023-12-20T09:26:25;22.77;;;8.75;;
80392;SDS011;69719;45.544;10.218;2023-12-20T09:28:50;19.58;;;7.90;;
80392;SDS011;69719;45.544;10.218;2023-12-20T09:31:16;21.80;;;7.88;;
80392;SDS011;69719;45.544;10.218;2023-12-20T09:33:41;18.85;;;7.55;;
80392;SDS011;69719;45.544;10.218;2023-12-20T09:36:07;19.55;;;7.72;;
80392;SDS011;69719;45.544;10.218;2023-12-20T09:38:32;23.05;;;8.25;;
80392;SDS011;69719;45.544;10.218;2023-12-20T09:40:58;23.40;;;9.73;;
80392;SDS011;69719;45.544;10.218;2023-12-20T09:43:24;20.80;;;8.05;;
80392;SDS011;69719;45.544;10.218;2023-12-20T09:45:54;18.60;;;8.07;;
80392;SDS011;69719;45.544;10.218;2023-12-20T09:48:25;22.38;;;7.88;;
80392;SDS011;69719;45.544;10.218;2023-12-20T09:50:53;23.90;;;8.70;;
80392;SDS011;69719;45.544;10.218;2023-12-20T09:53:18;21.50;;;8.55;;
80392;SDS011;69719;45.544;10.218;2023-12-20T09:55:48;22.13;;;8.75;;
80392;SDS011;69719;45.544;10.218;2023-12-20T09:58:14;22.35;;;7.88;;
80392;SDS011;69719;45.544;10.218;2023-12-20T10:00:40;23.50;;;8.73;;
80392;SDS011;69719;45.544;10.218;2023-12-20T10:03:06;22.90;;;8.73;;
80392;SDS011;69719;45.544;10.218;2023-12-20T10:05:32;23.20;;;8.82;;
80392;SDS011;69719;45.544;10.218;2023-12-20T10:07:59;25.58;;;10.10;;
80392;SDS011;69719;45.544;10.218;2023-12-20T10:10:25;20.80;;;8.82;;
80392;SDS011;69719;45.544;10.218;2023-12-20T10:13:01;18.92;;;8.52;;
80392;SDS011;69719;45.544;10.218;2023-12-20T10:15:32;26.52;;;10.55;;
80392;SDS011;69719;45.544;10.218;2023-12-20T10:17:58;21.48;;;10.43;;
80392;SDS011;69719;45.544;10.218;2023-12-20T10:20:24;26.38;;;8.82;;
80392;SDS011;69719;45.544;10.218;2023-12-20T10:22:50;20.52;;;8.68;;
80392;SDS011;69719;45.544;10.218;2023-12-20T10:25:18;25.83;;;10.20;;
80392;SDS011;69719;45.544;10.218;2023-12-20T10:27:45;21.75;;;8.57;;
80392;SDS011;69719;45.544;10.218;2023-12-20T10:30:13;26.45;;;9.52;;
80392;SDS011;69719;45.544;10.218;2023-12-20T10:32:39;29.85;;;10.07;;
80392;SDS011;69719;45.544;10.218;2023-12-20T10:35:06;33.47;;;11.05;;
80392;SDS011;69719;45.544;10.218;2023-12-20T10:37:35;31.40;;;10.77;;
80392;SDS011;69719;45.544;10.218;2023-12-20T10:40:04;25.75;;;9.15;;
80392;SDS011;69719;45.544;10.218;2023-12-20T10:42:31;28.20;;;10.00;;
80392;SDS011;69719;45.544;10.218;2023-12-20T10:44:59;24.65;;;9.20;;
80392;SDS011;69719;45.544;10.218;2023-12-20T10:47:25;30.55;;;10.60;;
80392;SDS011;69719;45.544;10.218;2023-12-20T10:49:54;22.15;;;10.20;;
80392;SDS011;69719;45.544;10.218;2023-12-20T10:52:19;27.88;;;9.65;;
80392;SDS011;69719;45.544;10.218;2023-12-20T10:54:48;27.05;;;10.88;;
80392;SDS011;69719;45.544;10.218;2023-12-20T10:57:18;30.70;;;11.02;;
80392;SDS011;69719;45.544;10.218;2023-12-20T10:59:44;28.90;;;11.48;;
80392;SDS011;69719;45.544;10.218;2023-12-20T11:02:12;30.00;;;12.65;;
80392;SDS011;69719;45.544;10.218;2023-12-20T11:04:47;39.13;;;13.75;;
80392;SDS011;69719;45.544;10.218;2023-12-20T11:10:01;37.17;;;13.48;;
80392;SDS011;69719;45.544;10.218;2023-12-20T11:12:52;32.80;;;14.80;;
80392;SDS011;69719;45.544;10.218;2023-12-20T11:15:22;36.72;;;16.02;;
80392;SDS011;69719;45.544;10.218;2023-12-20T11:17:54;38.13;;;14.52;;
80392;SDS011;69719;45.544;10.218;2023-12-20T11:20:22;34.65;;;15.02;;
80392;SDS011;69719;45.544;10.218;2023-12-20T11:22:54;34.97;;;14.48;;
80392;SDS011;69719;45.544;10.218;2023-12-20T11:25:21;35.15;;;15.00;;
80392;SDS011;69719;45.544;10.218;2023-12-20T11:28:06;36.78;;;13.85;;
80392;SDS011;69719;45.544;10.218;2023-12-20T11:30:43;32.92;;;14.18;;
80392;SDS011;69719;45.544;10.218;2023-12-20T11:33:13;39.15;;;14.85;;
80392;SDS011;69719;45.544;10.218;2023-12-20T11:35:44;35.50;;;15.38;;
80392;SDS011;69719;45.544;10.218;2023-12-20T11:38:11;35.97;;;14.82;;
80392;SDS011;69719;45.544;10.218;2023-12-20T11:40:38;38.95;;;16.65;;
80392;SDS011;69719;45.544;10.218;2023-12-20T11:43:03;34.42;;;16.02;;
80392;SDS011;69719;45.544;10.218;2023-12-20T11:45:32;34.95;;;16.35;;
80392;SDS011;69719;45.544;10.218;2023-12-20T11:48:00;34.53;;;16.08;;
80392;SDS011;69719;45.544;10.218;2023-12-20T11:50:27;28.83;;;16.30;;
80392;SDS011;69719;45.544;10.218;2023-12-20T11:52:55;33.03;;;15.70;;
80392;SDS011;69719;45.544;10.218;2023-12-20T11:55:21;31.08;;;16.25;;
80392;SDS011;69719;45.544;10.218;2023-12-20T11:57:49;32.38;;;16.20;;
80392;SDS011;69719;45.544;10.218;2023-12-20T12:00:15;33.33;;;16.80;;
80392;SDS011;69719;45.544;10.218;2023-12-20T12:02:41;37.25;;;16.88;;
80392;SDS011;69719;45.544;10.218;2023-12-20T12:05:07;29.80;;;16.52;;
80392;SDS011;69719;45.544;10.218;2023-12-20T12:07:33;34.47;;;18.13;;
80392;SDS011;69719;45.544;10.218;2023-12-20T12:09:59;37.22;;;16.70;;
80392;SDS011;69719;45.544;10.218;2023-12-20T12:12:25;42.90;;;18.92;;
80392;SDS011;69719;45.544;10.218;2023-12-20T12:14:52;38.90;;;16.83;;
80392;SDS011;69719;45.544;10.218;2023-12-20T12:17:18;35.92;;;18.90;;
80392;SDS011;69719;45.544;10.218;2023-12-20T12:19:45;32.22;;;17.25;;
80392;SDS011;69719;45.544;10.218;2023-12-20T12:22:12;38.13;;;18.63;;
80392;SDS011;69719;45.544;10.218;2023-12-20T12:24:39;32.38;;;17.95;;
80392;SDS011;69719;45.544;10.218;2023-12-20T12:27:06;34.90;;;19.23;;
80392;SDS011;69719;45.544;10.218;2023-12-20T12:29:32;35.03;;;18.38;;
80392;SDS011;69719;45.544;10.218;2023-12-20T12:31:58;38.10;;;20.08;;
80392;SDS011;69719;45.544;10.218;2023-12-20T12:34:24;33.72;;;18.95;;
80392;SDS011;69719;45.544;10.218;2023-12-20T12:36:53;36.55;;;20.88;;
80392;SDS011;69719;45.544;10.218;2023-12-20T12:39:18;38.45;;;20.40;;
80392;SDS011;69719;45.544;10.218;2023-12-20T12:41:44;36.95;;;22.25;;
80392;SDS011;69719;45.544;10.218;2023-12-20T12:44:09;37.17;;;20.20;;
80392;SDS011;69719;45.544;10.218;2023-12-20T12:46:38;35.63;;;19.08;;
80392;SDS011;69719;45.544;10.218;2023-12-20T12:49:03;34.47;;;19.70;;
80392;SDS011;69719;45.544;10.218;2023-12-20T12:51:29;36.00;;;20.20;;
80392;SDS011;69719;45.544;10.218;2023-12-20T12:53:54;39.97;;;20.15;;
80392;SDS011;69719;45.544;10.218;2023-12-20T12:56:20;34.95;;;21.67;;
80392;SDS011;69719;45.544;10.218;2023-12-20T12:58:46;40.75;;;21.15;;
80392;SDS011;69719;45.544;10.218;2023-12-20T13:01:12;40.33;;;20.17;;
80392;SDS011;69719;45.544;10.218;2023-12-20T13:03:37;42.05;;;21.85;;
80392;SDS011;69719;45.544;10.218;2023-12-20T13:06:03;85.53;;;33.92;;
80392;SDS011;69719;45.544;10.218;2023-12-20T13:08:30;37.15;;;20.30;;
80392;SDS011;69719;45.544;10.218;2023-12-20T13:10:57;38.75;;;20.70;;
80392;SDS011;69719;45.544;10.218;2023-12-20T13:13:25;32.40;;;19.10;;
80392;SDS011;69719;45.544;10.218;2023-12-20T13:15:51;33.10;;;20.10;;
80392;SDS011;69719;45.544;10.218;2023-12-20T13:18:20;39.97;;;20.08;;
80392;SDS011;69719;45.544;10.218;2023-12-20T13:20:46;35.60;;;22.10;;
80392;SDS011;69719;45.544;10.218;2023-12-20T13:23:11;36.78;;;19.23;;
80392;SDS011;69719;45.544;10.218;2023-12-20T13:25:37;31.98;;;18.50;;
80392;SDS011;69719;45.544;10.218;2023-12-20T13:28:03;31.88;;;19.10;;
80392;SDS011;69719;45.544;10.218;2023-12-20T13:30:28;35.28;;;20.02;;
80392;SDS011;69719;45.544;10.218;2023-12-20T13:32:54;39.58;;;19.05;;
80392;SDS011;69719;45.544;10.218;2023-12-20T13:35:20;34.03;;;19.25;;
80392;SDS011;69719;45.544;10.218;2023-12-20T13:37:46;38.28;;;18.25;;
80392;SDS011;69719;45.544;10.218;2023-12-20T13:40:11;34.13;;;18.08;;
80392;SDS011;69719;45.544;10.218;2023-12-20T13:42:38;33.60;;;18.05;;
80392;SDS011;69719;45.544;10.218;2023-12-20T13:45:04;39.83;;;23.17;;
80392;SDS011;69719;45.544;10.218;2023-12-20T13:47:31;33.80;;;19.00;;
80392;SDS011;69719;45.544;10.218;2023-12-20T13:49:57;35.42;;;19.08;;
80392;SDS011;69719;45.544;10.218;2023-12-20T13:52:22;37.45;;;20.83;;
80392;SDS011;69719;45.544;10.218;2023-12-20T13:54:48;41.85;;;23.98;;
80392;SDS011;69719;45.544;10.218;2023-12-20T13:57:13;35.67;;;20.65;;
80392;SDS011;69719;45.544;10.218;2023-12-20T13:59:39;31.48;;;18.80;;
80392;SDS011;69719;45.544;10.218;2023-12-20T14:02:08;40.20;;;22.88;;
80392;SDS011;69719;45.544;10.218;2023-12-20T14:04:33;33.42;;;19.88;;
80392;SDS011;69719;45.544;10.218;2023-12-20T14:06:59;57.05;;;30.33;;
80392;SDS011;69719;45.544;10.218;2023-12-20T14:09:24;35.85;;;20.27;;
80392;SDS011;69719;45.544;10.218;2023-12-20T14:11:50;47.58;;;23.70;;
80392;SDS011;69719;45.544;10.218;2023-12-20T14:14:15;57.35;;;29.70;;
80392;SDS011;69719;45.544;10.218;2023-12-20T14:16:44;41.22;;;21.27;;
80392;SDS011;69719;45.544;10.218;2023-12-20T14:19:10;43.55;;;22.73;;
80392;SDS011;69719;45.544;10.218;2023-12-20T14:21:36;51.05;;;24.98;;